Time;durP1;ratioP1;P1;durP2;ratioP2;P2;SDS_P1;SDS_P2;PMS_P1;PMS_P2;Temp;Humidity;BMP_temperature;BMP_pressure;BME280_temperature;BME280_humidity;BME280_pressure;Samples;Min_cycle;Max_cycle;Signal;HPM_P1;HPM_P2
2020/12/09 00:01:14;;;;;;;57.47;26.25;;;4.10;99.90;;;;;;5033050;28;20717;-77
2020/12/09 00:03:40;;;;;;;55.10;25.65;;;4.10;99.90;;;;;;5039599;28;20025;-77
2020/12/09 00:06:06;;;;;;;54.53;26.02;;;4.20;99.90;;;;;;5035705;28;20383;-77
2020/12/09 00:08:32;;;;;;;55.80;26.38;;;4.20;99.90;;;;;;5037154;28;20041;-77
2020/12/09 00:10:58;;;;;;;59.13;25.45;;;4.20;99.90;;;;;;5039012;28;20044;-77
2020/12/09 00:13:23;;;;;;;52.15;25.42;;;4.20;99.90;;;;;;5039063;28;20119;-77
2020/12/09 00:15:49;;;;;;;56.28;26.92;;;4.20;99.90;;;;;;5034603;28;20078;-77
2020/12/09 00:18:14;;;;;;;55.05;25.85;;;4.30;99.90;;;;;;5041395;28;20029;-77
2020/12/09 00:20:39;;;;;;;56.22;25.00;;;4.20;99.90;;;;;;5041221;28;20667;-77
2020/12/09 00:23:05;;;;;;;56.17;25.70;;;4.30;99.90;;;;;;5042638;28;20511;-77
2020/12/09 00:25:30;;;;;;;59.13;26.85;;;4.20;99.90;;;;;;5038044;28;20438;-77
2020/12/09 00:27:56;;;;;;;57.88;26.33;;;4.30;99.90;;;;;;5032739;28;20112;-77
2020/12/09 00:30:22;;;;;;;58.85;26.88;;;4.30;99.90;;;;;;5038455;28;20102;-77
2020/12/09 00:32:47;;;;;;;56.92;24.65;;;4.30;99.90;;;;;;5034909;28;20033;-77
2020/12/09 00:35:13;;;;;;;56.05;27.20;;;4.30;99.90;;;;;;5029757;28;20029;-77
2020/12/09 00:37:38;;;;;;;55.47;25.80;;;4.30;99.90;;;;;;5038593;28;20029;-77
2020/12/09 00:40:05;;;;;;;53.17;25.15;;;4.30;99.90;;;;;;5031620;28;20094;-77
2020/12/09 00:42:31;;;;;;;49.25;24.00;;;4.40;99.90;;;;;;5018922;28;20032;-77
2020/12/09 00:44:57;;;;;;;51.92;25.35;;;4.40;99.90;;;;;;5022879;28;20169;-77
2020/12/09 00:47:22;;;;;;;54.13;24.98;;;4.30;99.90;;;;;;5024799;28;20029;-77
2020/12/09 00:49:58;;;;;;;49.70;24.10;;;4.40;99.90;;;;;;5038081;28;20025;-77
2020/12/09 00:52:28;;;;;;;50.30;24.08;;;4.30;99.90;;;;;;5034470;28;20033;-77
2020/12/09 00:54:55;;;;;;;52.90;24.58;;;4.30;99.90;;;;;;5025933;28;20025;-77
2020/12/09 00:57:23;;;;;;;51.17;25.85;;;4.30;99.90;;;;;;5027658;28;20163;-77
2020/12/09 00:59:49;;;;;;;56.25;25.23;;;4.30;99.90;;;;;;5036717;28;20097;-77
2020/12/09 01:02:14;;;;;;;62.30;25.58;;;4.30;99.90;;;;;;5042788;28;20470;-77
2020/12/09 01:04:40;;;;;;;55.08;25.23;;;4.30;99.90;;;;;;5038009;28;20066;-77
2020/12/09 01:07:06;;;;;;;57.85;25.35;;;4.40;99.90;;;;;;5028022;28;20025;-77
2020/12/09 01:09:31;;;;;;;58.60;25.20;;;4.40;99.90;;;;;;5036721;28;20120;-77
2020/12/09 01:12:03;;;;;;;53.70;24.65;;;4.30;99.90;;;;;;5031444;28;20032;-77
2020/12/09 01:14:30;;;;;;;54.20;25.52;;;4.40;99.90;;;;;;5034227;28;20032;-77
2020/12/09 01:16:55;;;;;;;53.95;25.33;;;4.40;99.90;;;;;;5035294;28;20021;-77
2020/12/09 01:19:22;;;;;;;57.05;25.80;;;4.30;99.90;;;;;;5034541;28;20047;-77
2020/12/09 01:21:48;;;;;;;58.35;24.35;;;4.20;99.90;;;;;;5040108;28;20741;-77
2020/12/09 01:24:13;;;;;;;50.05;23.75;;;4.30;99.90;;;;;;5036108;28;20127;-76
2020/12/09 01:26:39;;;;;;;52.20;24.88;;;4.30;99.90;;;;;;5035870;28;20044;-77
2020/12/09 01:29:04;;;;;;;56.25;25.70;;;4.30;99.90;;;;;;5037940;28;20041;-77
2020/12/09 01:31:30;;;;;;;55.83;25.25;;;4.30;99.90;;;;;;5023479;28;20125;-77
2020/12/09 01:33:55;;;;;;;59.00;24.52;;;4.40;99.90;;;;;;5034977;28;20017;-77
2020/12/09 01:36:22;;;;;;;55.25;23.98;;;4.40;99.90;;;;;;5047470;28;20386;-76
2020/12/09 01:38:49;;;;;;;55.67;25.38;;;4.40;99.90;;;;;;5036685;28;20025;-77
2020/12/09 01:41:17;;;;;;;52.90;25.80;;;4.40;99.90;;;;;;5026319;28;20124;-77
2020/12/09 01:43:44;;;;;;;55.72;25.13;;;4.40;99.90;;;;;;5034020;28;20044;-77
2020/12/09 01:46:15;;;;;;;53.42;24.77;;;4.40;99.90;;;;;;5037876;28;20048;-77
2020/12/09 01:48:42;;;;;;;56.13;25.15;;;4.40;99.90;;;;;;5035896;28;20021;-77
2020/12/09 01:51:08;;;;;;;56.63;25.67;;;4.40;99.90;;;;;;5039769;28;20121;-77
2020/12/09 01:53:33;;;;;;;55.42;25.23;;;4.40;99.90;;;;;;5041361;28;20630;-77
2020/12/09 01:55:59;;;;;;;51.17;25.63;;;4.40;99.90;;;;;;5039783;28;20120;-78
2020/12/09 01:58:25;;;;;;;55.03;24.83;;;4.50;99.90;;;;;;5021866;28;20038;-77
2020/12/09 02:00:54;;;;;;;56.65;25.48;;;4.50;99.90;;;;;;5029041;28;20539;-78
2020/12/09 02:03:20;;;;;;;52.92;24.73;;;4.40;99.90;;;;;;5043177;28;20037;-77
2020/12/09 02:05:45;;;;;;;53.10;24.60;;;4.50;99.90;;;;;;5037013;28;20029;-78
2020/12/09 02:08:11;;;;;;;58.08;26.40;;;4.40;99.90;;;;;;5035865;28;20079;-78
2020/12/09 02:10:36;;;;;;;56.00;26.15;;;4.40;99.90;;;;;;5034849;28;20033;-77
2020/12/09 02:13:02;;;;;;;52.40;25.00;;;4.40;99.90;;;;;;5039047;28;20357;-78
2020/12/09 02:15:27;;;;;;;51.33;24.58;;;4.40;99.90;;;;;;5046037;28;20025;-77
2020/12/09 02:17:52;;;;;;;50.20;24.65;;;4.40;99.90;;;;;;5046780;28;20021;-77
2020/12/09 02:20:18;;;;;;;55.47;24.90;;;4.40;99.90;;;;;;5039966;28;20033;-77
2020/12/09 02:22:54;;;;;;;53.92;24.48;;;4.40;99.90;;;;;;5043498;28;20039;-77
2020/12/09 02:25:21;;;;;;;56.75;25.60;;;4.40;99.90;;;;;;5043531;28;20033;-77
2020/12/09 02:27:46;;;;;;;60.60;25.98;;;4.40;99.90;;;;;;5041066;28;20434;-77
2020/12/09 02:30:12;;;;;;;59.83;26.50;;;4.40;99.90;;;;;;5048006;28;20049;-77
2020/12/09 02:32:37;;;;;;;51.08;25.17;;;4.40;99.90;;;;;;5040090;28;20029;-77
2020/12/09 02:35:04;;;;;;;54.50;25.30;;;4.40;99.90;;;;;;5032841;28;20029;-77
2020/12/09 02:37:33;;;;;;;57.17;26.30;;;4.40;99.90;;;;;;5027249;28;20074;-77
2020/12/09 02:39:59;;;;;;;51.40;25.35;;;4.40;99.90;;;;;;5038044;28;20048;-77
2020/12/09 02:42:24;;;;;;;47.53;24.50;;;4.40;99.90;;;;;;5036230;28;20059;-77
2020/12/09 02:44:50;;;;;;;57.30;25.70;;;4.40;99.90;;;;;;5033780;28;20040;-77
2020/12/09 02:47:15;;;;;;;58.83;25.55;;;4.40;99.90;;;;;;5027105;28;20036;-77
2020/12/09 02:49:40;;;;;;;55.50;26.05;;;4.40;99.90;;;;;;5033991;28;20044;-77
2020/12/09 02:52:06;;;;;;;56.58;26.20;;;4.50;99.90;;;;;;5042457;28;20029;-77
2020/12/09 02:54:31;;;;;;;51.47;25.58;;;4.40;99.90;;;;;;5030778;28;20489;-77
2020/12/09 02:56:57;;;;;;;56.97;24.80;;;4.40;99.90;;;;;;5032968;28;20033;-77
2020/12/09 02:59:22;;;;;;;58.30;25.67;;;4.30;99.90;;;;;;5026596;28;20021;-77
2020/12/09 03:01:48;;;;;;;56.60;26.08;;;4.30;99.90;;;;;;5035446;28;20870;-77
2020/12/09 03:04:13;;;;;;;55.38;25.63;;;4.40;99.90;;;;;;5029666;28;20116;-77
2020/12/09 03:06:40;;;;;;;58.42;27.08;;;4.40;99.90;;;;;;5027830;28;20028;-77
2020/12/09 03:09:06;;;;;;;55.55;25.75;;;4.40;99.90;;;;;;5023047;28;20387;-77
2020/12/09 03:11:31;;;;;;;54.95;25.08;;;4.40;99.90;;;;;;5030662;28;20033;-77
2020/12/09 03:13:57;;;;;;;55.58;26.90;;;4.40;99.90;;;;;;5024249;28;20017;-77
2020/12/09 03:16:23;;;;;;;62.03;25.85;;;4.40;99.90;;;;;;5035602;28;20020;-78
2020/12/09 03:18:49;;;;;;;58.40;25.83;;;4.40;99.90;;;;;;5020453;28;20025;-77
2020/12/09 03:21:14;;;;;;;52.83;25.48;;;4.30;99.90;;;;;;5035793;28;20484;-77
2020/12/09 03:23:40;;;;;;;53.47;26.08;;;4.30;99.90;;;;;;5035225;28;20151;-77
2020/12/09 03:26:05;;;;;;;55.58;26.02;;;4.40;99.90;;;;;;5031731;28;20079;-78
2020/12/09 03:28:34;;;;;;;54.58;25.80;;;4.40;99.90;;;;;;5026052;28;20415;-77
2020/12/09 03:30:59;;;;;;;56.03;26.27;;;4.40;99.90;;;;;;5030222;28;20021;-77
2020/12/09 03:33:25;;;;;;;56.58;26.25;;;4.50;99.90;;;;;;5035808;28;20036;-77
2020/12/09 03:35:50;;;;;;;54.38;25.85;;;4.40;99.90;;;;;;5041326;28;20079;-77
2020/12/09 03:38:16;;;;;;;58.25;25.08;;;4.40;99.90;;;;;;5038014;28;20017;-77
2020/12/09 03:40:41;;;;;;;59.33;27.73;;;4.40;99.90;;;;;;5037221;28;20025;-77
2020/12/09 03:43:07;;;;;;;61.10;27.13;;;4.30;99.90;;;;;;5044280;28;20024;-78
2020/12/09 03:45:33;;;;;;;59.83;26.55;;;4.40;99.90;;;;;;5028984;28;20037;-77
2020/12/09 03:47:58;;;;;;;57.15;26.73;;;4.40;99.90;;;;;;5036855;28;20033;-77
2020/12/09 03:50:24;;;;;;;58.50;26.98;;;4.30;99.90;;;;;;5040765;28;20033;-77
2020/12/09 03:52:49;;;;;;;61.55;27.02;;;4.40;99.90;;;;;;5031644;28;20029;-77
2020/12/09 03:55:15;;;;;;;59.72;27.90;;;4.30;99.90;;;;;;5043417;28;20487;-77
2020/12/09 03:57:40;;;;;;;58.00;28.38;;;4.20;99.90;;;;;;5038012;28;20017;-77
2020/12/09 04:00:06;;;;;;;61.45;28.23;;;4.20;99.90;;;;;;5047236;28;20044;-77
2020/12/09 04:02:31;;;;;;;56.97;26.92;;;4.30;99.90;;;;;;5037022;28;20029;-77
2020/12/09 04:04:56;;;;;;;57.75;26.80;;;4.30;99.90;;;;;;5038964;28;20484;-77
2020/12/09 04:07:22;;;;;;;59.90;27.58;;;4.30;99.90;;;;;;5037959;28;20021;-77
2020/12/09 04:09:48;;;;;;;60.70;27.42;;;4.30;99.90;;;;;;5028748;28;20032;-77
2020/12/09 04:12:13;;;;;;;60.38;28.73;;;4.30;99.90;;;;;;5036895;28;20013;-77
2020/12/09 04:14:38;;;;;;;58.30;27.80;;;4.20;99.90;;;;;;5049971;28;20021;-77
2020/12/09 04:17:04;;;;;;;58.35;27.95;;;4.20;99.90;;;;;;5037969;28;20051;-77
2020/12/09 04:19:29;;;;;;;60.70;28.42;;;4.20;99.90;;;;;;5045930;28;20021;-77
2020/12/09 04:21:55;;;;;;;60.22;27.23;;;4.10;99.90;;;;;;5046128;28;20445;-77
2020/12/09 04:24:20;;;;;;;68.80;29.67;;;4.10;99.90;;;;;;5048436;28;20036;-77
2020/12/09 04:26:46;;;;;;;60.83;29.13;;;4.10;99.90;;;;;;5050687;28;20029;-77
2020/12/09 04:29:11;;;;;;;61.17;28.33;;;4.20;99.90;;;;;;5049703;28;20285;-77
2020/12/09 04:31:37;;;;;;;58.97;27.65;;;4.20;99.90;;;;;;5050236;28;20037;-78
2020/12/09 04:34:03;;;;;;;63.10;29.30;;;4.20;99.90;;;;;;5040995;28;20510;-77
2020/12/09 04:36:29;;;;;;;64.18;28.45;;;4.20;99.90;;;;;;5037270;28;20142;-77
2020/12/09 04:38:55;;;;;;;65.53;29.23;;;4.20;99.90;;;;;;5043161;28;20033;-78
2020/12/09 04:41:21;;;;;;;63.05;28.17;;;4.30;99.90;;;;;;5034285;28;20032;-77
2020/12/09 04:43:47;;;;;;;64.38;29.45;;;4.20;99.90;;;;;;5041472;28;20028;-77
2020/12/09 04:46:13;;;;;;;65.50;29.35;;;4.20;99.90;;;;;;5041693;28;20044;-78
2020/12/09 04:48:40;;;;;;;62.70;28.98;;;4.10;99.90;;;;;;5028946;28;20055;-77
2020/12/09 04:51:40;;;;;;;63.70;29.63;;;4.10;99.90;;;;;;5040631;28;20025;-77
2020/12/09 04:54:14;;;;;;;63.25;28.83;;;4.20;99.90;;;;;;5045740;28;20033;-77
2020/12/09 04:56:55;;;;;;;60.72;27.48;;;4.20;99.90;;;;;;5035522;28;20083;-77
2020/12/09 04:59:25;;;;;;;59.15;29.02;;;4.10;99.90;;;;;;5038499;28;20139;-77
2020/12/09 05:02:05;;;;;;;69.20;29.48;;;4.00;99.90;;;;;;5038992;28;20057;-77
2020/12/09 05:04:32;;;;;;;61.92;28.98;;;4.10;99.90;;;;;;5039381;28;20040;-77
2020/12/09 05:07:05;;;;;;;63.22;28.60;;;4.10;99.90;;;;;;5039990;28;20033;-77
2020/12/09 05:09:37;;;;;;;69.45;29.52;;;4.00;99.90;;;;;;5042481;28;20023;-77
2020/12/09 05:12:06;;;;;;;68.43;30.00;;;4.10;99.90;;;;;;5025131;28;20026;-77
2020/12/09 05:14:33;;;;;;;64.50;30.60;;;4.00;99.90;;;;;;5038513;28;20041;-77
2020/12/09 05:16:59;;;;;;;66.43;29.42;;;4.10;99.90;;;;;;5038141;28;20050;-77
2020/12/09 05:19:26;;;;;;;72.78;29.88;;;4.10;99.90;;;;;;5043459;28;20064;-77
2020/12/09 05:21:52;;;;;;;66.82;30.17;;;4.00;99.90;;;;;;5042920;28;20486;-80
2020/12/09 05:24:20;;;;;;;71.43;32.40;;;4.00;99.90;;;;;;5042937;28;20029;-76
2020/12/09 05:26:47;;;;;;;76.95;31.35;;;4.00;99.90;;;;;;5031109;28;20036;-77
2020/12/09 05:29:15;;;;;;;74.47;29.35;;;4.00;99.90;;;;;;5032958;28;20666;-77
2020/12/09 05:32:00;;;;;;;65.68;29.55;;;4.00;99.90;;;;;;5049129;28;20056;-76
2020/12/09 05:34:28;;;;;;;68.32;30.23;;;3.90;99.90;;;;;;5038978;28;20024;-77
2020/12/09 05:36:57;;;;;;;62.58;29.70;;;3.90;99.90;;;;;;5047719;28;20028;-77
2020/12/09 05:39:23;;;;;;;64.45;30.02;;;4.00;99.90;;;;;;5041061;28;20078;-77
2020/12/09 05:41:49;;;;;;;69.63;29.75;;;3.90;99.90;;;;;;5040883;28;20476;-76
2020/12/09 05:44:15;;;;;;;67.28;31.00;;;3.80;99.90;;;;;;5046434;28;20025;-77
2020/12/09 05:47:03;;;;;;;68.32;29.95;;;3.80;99.90;;;;;;5045352;28;20023;-77
2020/12/09 05:49:32;;;;;;;64.50;28.73;;;3.90;99.90;;;;;;5041652;28;20393;-75
2020/12/09 05:52:08;;;;;;;67.53;29.63;;;3.80;99.90;;;;;;5035290;28;20032;-77
2020/12/09 05:54:35;;;;;;;64.00;30.50;;;3.80;99.90;;;;;;5036522;28;20033;-79
2020/12/09 05:57:06;;;;;;;72.30;31.13;;;3.90;99.90;;;;;;5028226;28;20014;-77
2020/12/09 05:59:33;;;;;;;64.23;29.17;;;3.80;99.90;;;;;;5028344;28;20023;-78
2020/12/09 06:02:06;;;;;;;65.03;29.65;;;3.80;99.90;;;;;;5035161;28;20549;-78
2020/12/09 06:04:49;;;;;;;66.30;31.30;;;3.90;99.90;;;;;;5021790;28;20041;-77
2020/12/09 06:07:15;;;;;;;68.28;30.92;;;3.90;99.90;;;;;;5026329;28;20047;-83
2020/12/09 06:10:07;;;;;;;67.07;30.05;;;3.90;99.90;;;;;;5025104;28;20057;-75
2020/12/09 06:12:53;;;;;;;68.07;30.02;;;3.80;99.90;;;;;;5032033;28;20036;-79
2020/12/09 06:15:21;;;;;;;67.88;29.50;;;3.80;99.90;;;;;;5025197;28;20028;-78
2020/12/09 06:18:00;;;;;;;67.28;30.85;;;3.80;99.90;;;;;;5029298;28;20029;-75
2020/12/09 06:20:29;;;;;;;68.95;29.67;;;3.70;99.90;;;;;;5033057;28;20032;-76
2020/12/09 06:22:55;;;;;;;66.45;30.83;;;3.60;99.90;;;;;;5042329;28;20048;-78
2020/12/09 06:25:21;;;;;;;68.32;30.27;;;3.70;99.90;;;;;;5030677;28;20043;-76
2020/12/09 06:27:46;;;;;;;74.07;32.45;;;3.70;99.90;;;;;;5029419;28;20026;-75
2020/12/09 06:30:12;;;;;;;71.57;30.83;;;3.60;99.90;;;;;;5029290;28;20115;-76
2020/12/09 06:32:46;;;;;;;70.28;31.65;;;3.70;99.90;;;;;;5031748;28;20068;-74
2020/12/09 06:35:11;;;;;;;71.50;31.08;;;3.70;99.90;;;;;;5028413;28;20053;-74
2020/12/09 06:37:37;;;;;;;68.05;31.25;;;3.70;99.90;;;;;;5024688;28;20014;-87
2020/12/09 06:40:08;;;;;;;66.63;30.92;;;3.70;99.90;;;;;;5019589;28;20382;-77
2020/12/09 06:42:33;;;;;;;71.95;30.92;;;3.80;99.90;;;;;;5033248;28;20386;-76
2020/12/09 06:45:00;;;;;;;74.20;30.15;;;3.80;99.90;;;;;;5034548;28;20104;-84
2020/12/09 06:47:26;;;;;;;64.32;30.23;;;3.90;99.90;;;;;;5030237;28;20568;-81
2020/12/09 06:49:51;;;;;;;64.72;30.15;;;3.90;99.90;;;;;;5031105;28;20037;-82
2020/12/09 06:52:34;;;;;;;72.50;31.58;;;3.80;99.90;;;;;;5034280;28;20043;-75
2020/12/09 06:55:00;;;;;;;77.10;32.05;;;3.70;99.90;;;;;;5034590;28;20029;-76
2020/12/09 06:57:38;;;;;;;66.93;31.27;;;3.70;99.90;;;;;;5031746;28;20550;-75
2020/12/09 07:00:22;;;;;;;67.35;30.42;;;3.70;99.90;;;;;;5030458;28;20064;-76
2020/12/09 07:02:52;;;;;;;73.57;31.38;;;3.80;99.90;;;;;;5026441;28;20443;-77
2020/12/09 07:05:27;;;;;;;69.90;31.77;;;3.90;99.90;;;;;;5024455;28;20033;-75
2020/12/09 07:07:59;;;;;;;66.95;30.02;;;3.80;99.90;;;;;;5033574;28;20117;-76
2020/12/09 07:10:27;;;;;;;61.80;30.25;;;3.80;99.90;;;;;;5039239;28;20124;-77
2020/12/09 07:13:09;;;;;;;63.10;30.83;;;3.90;99.90;;;;;;5040435;28;20086;-76
2020/12/09 07:15:37;;;;;;;73.18;31.30;;;3.90;99.90;;;;;;5043115;28;20112;-77
2020/12/09 07:18:04;;;;;;;65.63;31.38;;;3.90;99.90;;;;;;5043534;28;20079;-76
2020/12/09 07:20:29;;;;;;;62.28;30.35;;;3.90;99.90;;;;;;5043065;28;20036;-76
2020/12/09 07:22:55;;;;;;;67.05;30.23;;;3.90;99.90;;;;;;5043634;28;20025;-76
2020/12/09 07:25:21;;;;;;;74.30;31.65;;;3.90;99.90;;;;;;5043748;28;20535;-76
2020/12/09 07:27:47;;;;;;;69.45;31.02;;;3.90;99.90;;;;;;5045450;28;20025;-76
2020/12/09 07:30:14;;;;;;;64.95;29.60;;;3.90;99.90;;;;;;5044644;28;20044;-76
2020/12/09 07:32:40;;;;;;;66.13;30.80;;;3.90;99.90;;;;;;5047062;28;20029;-76
2020/12/09 07:35:11;;;;;;;61.35;29.42;;;3.90;99.90;;;;;;5049062;28;20468;-76
2020/12/09 07:37:43;;;;;;;66.13;30.58;;;4.00;99.90;;;;;;5042465;28;20056;-76
2020/12/09 07:40:30;;;;;;;72.43;30.77;;;4.00;99.90;;;;;;5047928;28;20025;-76
2020/12/09 07:43:07;;;;;;;64.70;29.63;;;3.90;99.90;;;;;;5047993;28;20115;-76
2020/12/09 07:45:35;;;;;;;70.72;29.27;;;4.00;99.90;;;;;;5048733;28;20048;-76
2020/12/09 07:48:04;;;;;;;69.85;31.40;;;4.00;99.90;;;;;;5047331;28;20058;-76
2020/12/09 07:50:30;;;;;;;66.25;30.88;;;4.00;99.90;;;;;;5048455;28;20029;-76
2020/12/09 07:52:56;;;;;;;65.40;30.88;;;4.00;99.90;;;;;;5048008;28;20025;-76
2020/12/09 07:55:22;;;;;;;64.07;30.73;;;4.00;99.90;;;;;;5047542;28;20025;-76
2020/12/09 07:57:48;;;;;;;63.17;30.75;;;3.90;99.90;;;;;;5048403;28;20490;-76
2020/12/09 08:00:22;;;;;;;69.20;31.30;;;3.90;99.90;;;;;;5046218;28;20111;-77
2020/12/09 08:02:47;;;;;;;70.10;30.92;;;4.00;99.90;;;;;;5043303;28;20032;-76
2020/12/09 08:05:21;;;;;;;61.33;29.38;;;4.00;99.90;;;;;;5046681;28;20566;-76
2020/12/09 08:07:49;;;;;;;65.50;30.15;;;3.80;99.90;;;;;;5046282;28;20042;-76
2020/12/09 08:10:16;;;;;;;66.90;29.60;;;3.80;99.90;;;;;;5048002;28;20128;-76
2020/12/09 08:12:42;;;;;;;67.50;31.00;;;3.90;99.90;;;;;;5047715;28;20033;-76
2020/12/09 08:15:09;;;;;;;65.07;31.45;;;3.90;99.90;;;;;;5048216;28;20079;-76
2020/12/09 08:17:35;;;;;;;63.78;29.38;;;3.90;99.90;;;;;;5047078;28;20457;-76
2020/12/09 08:20:07;;;;;;;59.15;28.40;;;4.00;99.90;;;;;;5046835;28;20017;-76
2020/12/09 08:23:09;;;;;;;71.85;30.83;;;4.00;99.90;;;;;;5046337;28;20033;-76
2020/12/09 08:25:47;;;;;;;63.00;28.95;;;3.90;99.90;;;;;;4986189;28;20146;-77
2020/12/09 08:28:13;;;;;;;66.53;30.55;;;3.80;99.90;;;;;;5038342;28;20486;-77
2020/12/09 08:30:39;;;;;;;67.00;30.75;;;3.90;99.90;;;;;;5047038;28;20040;-76
2020/12/09 08:33:10;;;;;;;64.15;29.80;;;3.90;99.90;;;;;;5046889;28;20462;-76
2020/12/09 08:35:57;;;;;;;67.32;31.23;;;3.90;99.90;;;;;;5047647;28;20033;-76
2020/12/09 08:38:42;;;;;;;68.35;30.65;;;4.00;99.90;;;;;;5046549;28;20075;-76
2020/12/09 08:41:12;;;;;;;72.30;29.77;;;4.00;99.90;;;;;;5046629;28;20226;-76
2020/12/09 08:43:40;;;;;;;71.28;31.73;;;4.00;99.90;;;;;;5045404;28;20087;-76
2020/12/09 08:46:08;;;;;;;64.78;30.02;;;4.00;99.90;;;;;;5047874;28;20040;-77
2020/12/09 08:48:37;;;;;;;71.32;30.98;;;4.00;99.90;;;;;;5046364;28;20491;-76
2020/12/09 08:51:04;;;;;;;68.13;30.95;;;4.00;99.90;;;;;;5046709;28;20025;-76
2020/12/09 08:53:29;;;;;;;63.30;30.23;;;4.00;99.90;;;;;;5045726;28;21248;-76
2020/12/09 08:55:55;;;;;;;69.22;31.88;;;4.10;99.90;;;;;;5047769;28;20021;-76
2020/12/09 08:58:21;;;;;;;64.93;30.98;;;4.10;99.90;;;;;;5046034;28;20486;-76
2020/12/09 09:00:47;;;;;;;64.47;29.75;;;4.10;99.90;;;;;;5045984;28;20036;-76
2020/12/09 09:03:18;;;;;;;60.28;29.05;;;4.10;99.90;;;;;;5047236;28;20526;-77
2020/12/09 09:05:46;;;;;;;68.45;30.23;;;4.10;99.90;;;;;;5047288;28;20052;-77
2020/12/09 09:08:15;;;;;;;66.05;30.08;;;4.20;99.90;;;;;;5045821;28;20581;-76
2020/12/09 09:10:43;;;;;;;68.68;30.05;;;4.10;99.90;;;;;;5046632;28;20040;-77
2020/12/09 09:13:10;;;;;;;67.10;30.92;;;4.10;99.90;;;;;;5045670;28;20025;-81
2020/12/09 09:15:37;;;;;;;64.90;31.30;;;4.20;99.90;;;;;;5045752;28;20376;-75
2020/12/09 09:18:04;;;;;;;66.53;30.52;;;4.20;99.90;;;;;;5046068;28;20017;-74
2020/12/09 09:20:30;;;;;;;64.05;29.10;;;4.10;99.90;;;;;;5046867;28;20029;-75
2020/12/09 09:22:55;;;;;;;66.75;29.52;;;4.10;99.90;;;;;;5045926;28;20024;-76
2020/12/09 09:25:22;;;;;;;67.90;29.60;;;4.10;99.90;;;;;;5046898;28;20035;-77
2020/12/09 09:27:48;;;;;;;64.45;30.27;;;4.10;99.90;;;;;;5046620;28;20021;-79
2020/12/09 09:30:14;;;;;;;66.05;30.75;;;4.10;99.90;;;;;;5045635;28;20065;-77
2020/12/09 09:32:40;;;;;;;69.07;30.88;;;4.20;99.90;;;;;;5046373;28;20103;-77
2020/12/09 09:35:05;;;;;;;67.32;30.60;;;4.20;99.90;;;;;;5046130;28;20025;-77
2020/12/09 09:37:31;;;;;;;65.32;29.85;;;4.20;99.90;;;;;;5044745;28;20391;-76
2020/12/09 09:39:57;;;;;;;69.63;30.75;;;4.10;99.90;;;;;;5047845;28;20029;-76
2020/12/09 09:42:23;;;;;;;63.67;29.30;;;4.20;99.90;;;;;;5048107;28;20036;-77
2020/12/09 09:44:50;;;;;;;77.05;30.25;;;4.20;99.90;;;;;;5047036;28;20021;-76
2020/12/09 09:47:15;;;;;;;63.88;30.10;;;4.20;99.90;;;;;;5044399;28;20033;-76
2020/12/09 09:49:41;;;;;;;66.93;29.95;;;4.20;99.90;;;;;;5047827;28;20025;-76
2020/12/09 09:52:07;;;;;;;63.88;29.98;;;4.20;99.90;;;;;;5038711;28;20025;-76
2020/12/09 09:54:34;;;;;;;63.40;29.92;;;4.20;99.90;;;;;;5029377;28;20028;-76
2020/12/09 09:56:59;;;;;;;64.20;30.15;;;4.20;99.90;;;;;;5018352;28;20139;-76
2020/12/09 09:59:26;;;;;;;63.33;29.85;;;4.30;99.90;;;;;;5023464;28;20112;-76
2020/12/09 10:01:52;;;;;;;65.13;30.60;;;4.30;99.90;;;;;;5018113;28;20021;-75
2020/12/09 10:04:19;;;;;;;69.10;30.85;;;4.40;99.90;;;;;;5028391;28;20478;-77
2020/12/09 10:06:45;;;;;;;65.20;30.75;;;4.40;99.90;;;;;;5036584;28;20116;-76
2020/12/09 10:09:11;;;;;;;69.05;31.02;;;4.40;99.90;;;;;;5034570;28;20100;-77
2020/12/09 10:11:40;;;;;;;66.53;31.27;;;4.40;99.90;;;;;;5034118;28;20104;-77
2020/12/09 10:14:06;;;;;;;61.55;29.90;;;4.40;99.90;;;;;;5036794;28;20033;-77
2020/12/09 10:16:32;;;;;;;76.10;31.52;;;4.50;99.90;;;;;;5036831;28;20045;-77
2020/12/09 10:18:59;;;;;;;60.92;29.30;;;4.60;99.90;;;;;;5032919;28;20102;-78
2020/12/09 10:21:30;;;;;;;71.75;31.02;;;4.50;99.90;;;;;;5034667;28;20566;-78
2020/12/09 10:23:57;;;;;;;74.28;31.00;;;4.60;99.90;;;;;;5028078;28;20476;-78
2020/12/09 10:26:34;;;;;;;72.45;30.60;;;4.60;99.90;;;;;;5025834;28;20506;-77
2020/12/09 10:29:01;;;;;;;62.08;29.05;;;4.70;99.90;;;;;;5028502;28;20052;-77
2020/12/09 10:31:35;;;;;;;65.55;29.85;;;4.50;99.90;;;;;;5046667;28;20100;-78
2020/12/09 10:34:01;;;;;;;64.78;29.60;;;4.60;99.90;;;;;;5035455;28;20167;-78
2020/12/09 10:36:30;;;;;;;68.57;30.30;;;4.60;99.90;;;;;;5028573;28;20131;-83
2020/12/09 10:38:56;;;;;;;69.70;31.08;;;4.70;99.90;;;;;;5023748;28;20025;-77
2020/12/09 10:41:22;;;;;;;65.60;29.95;;;4.70;99.90;;;;;;5027875;28;20017;-77
2020/12/09 10:43:54;;;;;;;64.55;29.80;;;4.70;99.90;;;;;;5018034;28;20061;-77
2020/12/09 10:46:21;;;;;;;63.85;28.63;;;4.70;99.90;;;;;;5041057;28;20036;-78
2020/12/09 10:48:47;;;;;;;64.25;30.88;;;4.70;99.90;;;;;;5035367;28;20759;-77
2020/12/09 10:51:14;;;;;;;65.82;29.70;;;4.60;99.90;;;;;;5035088;28;20047;-77
2020/12/09 10:53:39;;;;;;;66.47;30.52;;;4.60;99.90;;;;;;5034052;28;20124;-77
2020/12/09 10:56:05;;;;;;;63.20;28.83;;;4.60;99.90;;;;;;5034745;28;20124;-77
2020/12/09 10:58:31;;;;;;;64.22;29.50;;;4.60;99.90;;;;;;5020458;28;20062;-77
2020/12/09 11:00:57;;;;;;;70.18;30.48;;;4.60;99.90;;;;;;5024671;28;20022;-77
2020/12/09 11:03:23;;;;;;;69.65;31.23;;;4.70;99.90;;;;;;5022663;28;20550;-77
2020/12/09 11:05:49;;;;;;;67.57;30.55;;;4.70;99.90;;;;;;5021418;28;20045;-77
2020/12/09 11:08:15;;;;;;;65.22;30.02;;;4.80;99.90;;;;;;5027579;28;20052;-77
2020/12/09 11:10:41;;;;;;;65.70;29.58;;;4.90;99.90;;;;;;5029140;28;20063;-77
2020/12/09 11:13:07;;;;;;;63.88;30.17;;;5.00;99.90;;;;;;5042930;28;20399;-78
2020/12/09 11:15:33;;;;;;;67.28;30.77;;;5.00;99.90;;;;;;5035593;28;20024;-77
2020/12/09 11:17:59;;;;;;;65.18;30.35;;;4.90;99.90;;;;;;5028894;28;20014;-77
2020/12/09 11:20:28;;;;;;;64.57;31.38;;;4.80;99.90;;;;;;5025605;28;20075;-77
2020/12/09 11:22:55;;;;;;;68.32;31.23;;;4.80;99.90;;;;;;5015392;28;20087;-77
2020/12/09 11:25:23;;;;;;;68.95;30.88;;;4.80;99.90;;;;;;5035073;28;20029;-76
2020/12/09 11:27:50;;;;;;;64.78;29.23;;;4.80;99.90;;;;;;5017718;28;20029;-77
2020/12/09 11:30:16;;;;;;;59.55;29.30;;;4.90;99.90;;;;;;5033553;28;20501;-78
2020/12/09 11:32:42;;;;;;;64.68;29.38;;;5.00;99.90;;;;;;5037338;28;20427;-77
2020/12/09 11:35:08;;;;;;;70.63;30.73;;;5.00;99.90;;;;;;5031292;28;20024;-77
2020/12/09 11:37:34;;;;;;;64.10;29.80;;;4.90;99.90;;;;;;5036487;28;20029;-77
2020/12/09 11:40:00;;;;;;;66.78;31.52;;;4.80;99.90;;;;;;5034973;28;20404;-77
2020/12/09 11:42:25;;;;;;;68.40;29.83;;;5.00;99.90;;;;;;5034609;28;20537;-77
2020/12/09 11:44:51;;;;;;;71.15;29.88;;;5.00;99.90;;;;;;5036055;28;20037;-77
2020/12/09 11:47:17;;;;;;;57.30;29.23;;;5.00;99.90;;;;;;5035041;28;20028;-76
2020/12/09 11:49:43;;;;;;;61.78;30.20;;;5.00;99.90;;;;;;5026388;28;20470;-77
2020/12/09 11:52:08;;;;;;;68.60;29.58;;;4.90;99.90;;;;;;5039973;28;20118;-76
2020/12/09 11:54:34;;;;;;;60.13;29.08;;;4.90;99.90;;;;;;5039067;28;20067;-76
2020/12/09 11:57:00;;;;;;;68.78;29.23;;;4.90;99.90;;;;;;5039676;28;20490;-74
2020/12/09 11:59:26;;;;;;;59.85;30.00;;;4.90;99.90;;;;;;5026791;28;20017;-74
2020/12/09 12:01:52;;;;;;;62.67;27.58;;;4.70;99.90;;;;;;5038124;28;20045;-74
2020/12/09 12:04:17;;;;;;;65.30;30.65;;;4.70;99.90;;;;;;5043722;28;20116;-74
2020/12/09 12:06:43;;;;;;;62.63;29.50;;;4.70;99.90;;;;;;5043404;28;20190;-74
2020/12/09 12:09:09;;;;;;;72.35;31.48;;;4.70;99.90;;;;;;5042896;28;20047;-74
2020/12/09 12:11:34;;;;;;;68.35;30.40;;;4.80;99.90;;;;;;5042516;28;20032;-74
2020/12/09 12:14:00;;;;;;;64.40;29.70;;;4.80;99.90;;;;;;5043519;28;20021;-74
2020/12/09 12:16:25;;;;;;;62.45;29.13;;;4.80;99.90;;;;;;5044529;28;20159;-74
2020/12/09 12:18:52;;;;;;;63.30;27.25;;;4.90;99.90;;;;;;5042019;28;20032;-74
2020/12/09 12:21:20;;;;;;;65.72;29.23;;;4.70;99.90;;;;;;5046600;28;20033;-74
2020/12/09 12:23:46;;;;;;;66.30;28.63;;;4.70;99.90;;;;;;5045309;28;20042;-74
2020/12/09 12:26:16;;;;;;;63.58;28.50;;;4.80;99.90;;;;;;5046933;28;20031;-74
2020/12/09 12:28:42;;;;;;;61.35;28.25;;;4.80;99.90;;;;;;5046377;28;20131;-74
2020/12/09 12:31:16;;;;;;;59.63;27.52;;;4.80;99.90;;;;;;5047772;28;20060;-74
2020/12/09 12:33:41;;;;;;;66.80;29.17;;;4.70;99.90;;;;;;5045316;28;20033;-74
2020/12/09 12:36:07;;;;;;;60.33;27.33;;;4.70;99.90;;;;;;5048171;28;20380;-74
2020/12/09 12:38:33;;;;;;;63.35;27.48;;;4.70;99.90;;;;;;5046810;28;20068;-74